createdAt,value
2019-02-14T00:00:49.906Z,5.68
2019-02-14T00:03:20.359Z,5.74
2019-02-14T00:05:50.683Z,5.82
2019-02-14T00:08:21.257Z,5.89
2019-02-14T00:10:51.517Z,5.97
2019-02-14T00:13:22.990Z,6.04
2019-02-14T00:15:53.726Z,6.08
2019-02-14T00:18:24.015Z,6.14
2019-02-14T00:20:55.414Z,6.21
2019-02-14T00:23:25.718Z,6.25
2019-02-14T00:25:55.980Z,6.18
2019-02-14T00:28:26.239Z,6.15
2019-02-14T00:30:56.669Z,6.21
2019-02-14T00:33:26.920Z,6.17
2019-02-14T00:35:57.249Z,6.18
2019-02-14T00:38:27.506Z,6.23
2019-02-14T00:40:57.772Z,6.19
2019-02-14T00:43:28.101Z,6.08
2019-02-14T00:45:58.359Z,6.02
2019-02-14T00:48:28.639Z,5.96
2019-02-14T00:50:58.966Z,5.95
2019-02-14T00:53:29.412Z,5.85
2019-02-14T00:55:59.714Z,5.76
2019-02-14T00:58:30.055Z,5.72
2019-02-14T01:01:00.317Z,5.69
2019-02-14T01:03:30.624Z,5.67
2019-02-14T01:06:00.977Z,5.62
2019-02-14T01:08:31.661Z,5.58
2019-02-14T01:11:01.910Z,5.53
2019-02-14T01:13:32.952Z,5.48
2019-02-14T01:16:03.228Z,5.49
2019-02-14T01:18:33.540Z,5.46
2019-02-14T01:21:03.768Z,5.45
2019-02-14T01:23:34.132Z,5.46
2019-02-14T01:26:04.418Z,5.48
2019-02-14T01:28:34.758Z,5.51
2019-02-14T01:31:05.214Z,5.53
2019-02-14T01:33:36.650Z,5.53
2019-02-14T01:36:06.932Z,5.54
2019-02-14T01:38:37.184Z,5.54
2019-02-14T01:41:07.459Z,5.54
2019-02-14T01:43:37.778Z,5.54
2019-02-14T01:46:08.317Z,5.51
2019-02-14T01:48:38.573Z,5.48
2019-02-14T01:51:08.862Z,5.49
2019-02-14T01:53:39.124Z,5.49
2019-02-14T01:56:09.450Z,5.49
2019-02-14T01:58:39.697Z,5.51
2019-02-14T02:01:09.972Z,5.52
2019-02-14T02:03:40.289Z,5.56
2019-02-14T02:06:10.565Z,5.59
2019-02-14T02:08:40.825Z,5.65
2019-02-14T02:11:11.159Z,5.68
2019-02-14T02:13:42.261Z,5.72
2019-02-14T02:16:12.581Z,5.72
2019-02-14T02:18:42.930Z,5.73
2019-02-14T02:21:13.191Z,5.74
2019-02-14T02:23:43.493Z,5.74
2019-02-14T02:26:14.733Z,5.76
2019-02-14T02:28:45.000Z,5.77
2019-02-14T02:31:15.306Z,5.74
2019-02-14T02:33:45.638Z,5.67
2019-02-14T02:36:15.906Z,5.63
2019-02-14T02:38:46.212Z,5.61
2019-02-14T02:41:16.468Z,5.56
2019-02-14T02:43:46.827Z,5.57
2019-02-14T02:46:17.095Z,5.60
2019-02-14T02:48:47.364Z,5.71
2019-02-14T02:51:17.637Z,5.78
2019-02-14T02:53:47.896Z,5.91
2019-02-14T02:56:18.159Z,5.96
2019-02-14T02:58:48.419Z,6.04
2019-02-14T03:01:18.744Z,6.07
2019-02-14T03:03:49.083Z,6.14
2019-02-14T03:06:19.339Z,6.20
2019-02-14T03:08:49.591Z,6.20
2019-02-14T03:11:19.849Z,6.25
2019-02-14T03:13:50.959Z,6.26
2019-02-14T03:16:21.223Z,6.29
2019-02-14T03:18:51.512Z,6.30
2019-02-14T03:21:21.819Z,6.30
2019-02-14T03:23:52.077Z,6.35
2019-02-14T03:26:22.393Z,6.35
2019-02-14T03:28:52.655Z,6.36
2019-02-14T03:31:22.907Z,6.38
2019-02-14T03:33:53.171Z,6.39
2019-02-14T03:36:23.454Z,6.41
2019-02-14T03:38:53.726Z,6.42
2019-02-14T03:41:23.974Z,6.40
2019-02-14T03:43:54.270Z,6.43
2019-02-14T03:46:24.527Z,6.41
2019-02-14T03:48:54.783Z,6.43
2019-02-14T03:51:25.039Z,6.44
2019-02-14T03:53:55.292Z,6.52
2019-02-14T03:56:25.576Z,6.54
2019-02-14T03:58:55.844Z,6.51
2019-02-14T04:01:26.127Z,6.61
2019-02-14T04:03:57.353Z,6.58
2019-02-14T04:06:27.860Z,6.61
2019-02-14T04:08:58.127Z,6.59
2019-02-14T04:11:28.390Z,6.59
2019-02-14T04:13:59.633Z,6.56
2019-02-14T04:16:30.068Z,6.49
2019-02-14T04:19:00.329Z,6.51
2019-02-14T04:21:30.585Z,6.46
2019-02-14T04:24:00.861Z,6.46
2019-02-14T04:26:31.112Z,6.45
2019-02-14T04:29:01.387Z,6.42
2019-02-14T04:31:31.643Z,6.41
2019-02-14T04:34:01.889Z,6.39
2019-02-14T04:36:35.998Z,6.40
2019-02-14T04:39:05.085Z,6.41
2019-02-14T04:41:35.421Z,6.39
2019-02-14T04:44:05.694Z,6.39
2019-02-14T04:46:35.953Z,6.39
2019-02-14T04:49:06.222Z,6.40
2019-02-14T04:51:36.491Z,6.42
2019-02-14T04:54:06.739Z,6.43
2019-02-14T04:56:37.020Z,6.43
2019-02-14T04:59:07.289Z,6.42
2019-02-14T05:01:37.550Z,6.41
2019-02-14T05:04:07.807Z,6.38
2019-02-14T05:06:44.207Z,6.39
2019-02-14T05:09:10.189Z,6.39
2019-02-14T05:11:40.460Z,6.40
2019-02-14T05:14:10.717Z,6.42
2019-02-14T05:16:40.977Z,6.40
2019-02-14T05:19:11.306Z,6.38
2019-02-14T05:21:41.556Z,6.37
2019-02-14T05:24:11.842Z,6.37
2019-02-14T05:26:42.105Z,6.39
2019-02-14T05:29:12.364Z,6.40
2019-02-14T05:31:42.665Z,6.39
2019-02-14T05:34:12.879Z,6.36
2019-02-14T05:36:43.129Z,6.36
2019-02-14T05:39:13.408Z,6.35
2019-02-14T05:41:45.234Z,6.34
2019-02-14T05:44:15.604Z,6.35
2019-02-14T05:46:45.872Z,6.37
2019-02-14T05:49:16.126Z,6.38
2019-02-14T05:51:46.385Z,6.39
2019-02-14T05:54:16.653Z,6.42
2019-02-14T05:56:46.945Z,6.42
2019-02-14T05:59:17.205Z,6.48
2019-02-14T06:01:47.445Z,6.46
2019-02-14T06:04:17.707Z,6.47
2019-02-14T06:06:47.983Z,6.47
2019-02-14T06:09:18.274Z,6.48
2019-02-14T06:11:48.528Z,6.50
2019-02-14T06:14:18.866Z,6.53
2019-02-14T06:16:49.150Z,6.56
2019-02-14T06:19:19.425Z,6.60
2019-02-14T06:21:49.734Z,6.61
2019-02-14T06:24:21.060Z,6.61
2019-02-14T06:26:51.315Z,6.61
2019-02-14T06:29:21.584Z,6.59
2019-02-14T06:31:51.840Z,6.60
2019-02-14T06:34:22.125Z,6.61
2019-02-14T06:36:52.391Z,6.61
2019-02-14T06:39:22.714Z,6.63
2019-02-14T06:41:52.980Z,6.65
2019-02-14T06:44:23.289Z,6.67
2019-02-14T06:46:53.563Z,6.67
2019-02-14T06:49:23.822Z,6.68
2019-02-14T06:51:56.860Z,6.70
2019-02-14T06:54:27.127Z,6.68
2019-02-14T06:56:57.389Z,6.69
2019-02-14T06:59:27.644Z,6.68
2019-02-14T07:01:57.896Z,6.69
2019-02-14T07:04:28.149Z,6.70
2019-02-14T07:06:58.397Z,6.68
2019-02-14T07:09:28.674Z,6.68
2019-02-14T07:11:58.948Z,6.66
2019-02-14T07:14:30.000Z,6.71
2019-02-14T07:17:00.299Z,6.75
2019-02-14T07:19:32.150Z,6.76
2019-02-14T07:22:02.445Z,6.78
2019-02-14T07:24:32.704Z,6.80
2019-02-14T07:27:03.067Z,6.81
2019-02-14T07:29:33.368Z,6.86
2019-02-14T07:32:04.737Z,6.88
2019-02-14T07:34:34.982Z,6.88
2019-02-14T07:37:05.265Z,6.94
2019-02-14T07:39:35.550Z,6.95
2019-02-14T07:42:05.890Z,6.96
2019-02-14T07:44:36.163Z,6.99
2019-02-14T07:47:06.757Z,7.03
2019-02-14T07:49:37.033Z,7.05
2019-02-14T07:52:07.304Z,7.09
2019-02-14T07:54:37.592Z,7.12
2019-02-14T07:57:07.834Z,7.12
2019-02-14T07:59:38.170Z,7.11
2019-02-14T08:02:08.445Z,7.24
2019-02-14T08:04:38.719Z,7.31
2019-02-14T08:07:09.123Z,7.32
2019-02-14T08:09:39.399Z,7.36
2019-02-14T08:12:09.719Z,7.39
2019-02-14T08:14:40.794Z,7.42
2019-02-14T08:17:11.031Z,7.44
2019-02-14T08:19:41.310Z,7.49
2019-02-14T08:22:11.640Z,7.48
2019-02-14T08:24:42.079Z,7.40
2019-02-14T08:27:12.366Z,7.45
2019-02-14T08:29:42.629Z,7.47
2019-02-14T08:32:13.044Z,7.51
2019-02-14T08:34:43.403Z,7.47
2019-02-14T08:37:13.663Z,7.53
2019-02-14T08:39:43.913Z,7.58
2019-02-14T08:42:19.304Z,7.69
2019-02-14T08:44:50.967Z,7.70
2019-02-14T08:47:24.369Z,7.71
2019-02-14T08:49:56.807Z,7.78
2019-02-14T08:52:27.119Z,7.95
2019-02-14T08:54:57.415Z,8.03
2019-02-14T08:57:27.695Z,8.03
2019-02-14T09:00:01.372Z,8.12
2019-02-14T09:02:32.048Z,8.14
2019-02-14T09:05:02.343Z,8.20
2019-02-14T09:07:32.599Z,8.14
2019-02-14T09:10:02.871Z,8.28
2019-02-14T09:12:33.122Z,8.23
2019-02-14T09:15:03.858Z,8.22
2019-02-14T09:17:34.131Z,8.08
2019-02-14T09:20:06.695Z,8.09
2019-02-14T09:22:36.969Z,8.09
2019-02-14T09:25:08.017Z,8.03
2019-02-14T09:27:38.315Z,7.97
2019-02-14T09:30:12.504Z,7.99
2019-02-14T09:32:44.067Z,7.97
2019-02-14T09:35:14.321Z,8.03
2019-02-14T09:37:44.612Z,7.99
2019-02-14T09:40:18.314Z,7.99
2019-02-14T09:42:48.636Z,8.11
2019-02-14T09:45:18.971Z,8.12
2019-02-14T09:47:49.363Z,8.22
2019-02-14T09:50:19.619Z,8.31
2019-02-14T09:52:49.909Z,8.32
2019-02-14T09:55:20.255Z,8.47
2019-02-14T09:57:50.538Z,8.46
2019-02-14T10:00:20.849Z,8.54
2019-02-14T10:02:51.117Z,8.54
2019-02-14T10:05:21.378Z,8.63
2019-02-14T10:07:51.788Z,8.60
2019-02-14T10:10:23.636Z,8.71
2019-02-14T10:12:55.535Z,8.72
2019-02-14T10:15:28.838Z,8.83
2019-02-14T10:17:59.116Z,8.68
2019-02-14T10:20:29.360Z,8.71
2019-02-14T10:22:59.625Z,8.75
2019-02-14T10:25:29.898Z,8.73
2019-02-14T10:28:00.137Z,8.58
2019-02-14T10:30:30.459Z,8.58
2019-02-14T10:33:00.824Z,8.55
2019-02-14T10:35:31.096Z,8.55
2019-02-14T10:38:01.383Z,8.48
2019-02-14T10:40:31.631Z,8.59
2019-02-14T10:43:01.931Z,8.63
2019-02-14T10:45:32.192Z,8.41
2019-02-14T10:48:02.454Z,8.39
2019-02-14T10:50:32.718Z,8.41
2019-02-14T10:53:03.245Z,8.44
2019-02-14T10:55:33.504Z,8.50
2019-02-14T10:58:03.765Z,8.53
2019-02-14T11:00:34.030Z,8.50
2019-02-14T11:03:04.289Z,8.53
2019-02-14T11:05:35.646Z,8.61
2019-02-14T11:08:06.046Z,8.59
2019-02-14T11:10:36.305Z,8.89
2019-02-14T11:13:06.560Z,9.25
2019-02-14T11:15:36.838Z,9.30
2019-02-14T11:18:07.123Z,9.29
2019-02-14T11:20:37.380Z,9.23
2019-02-14T11:23:07.666Z,9.14
2019-02-14T11:25:40.291Z,9.06
2019-02-14T11:28:10.520Z,8.96
2019-02-14T11:30:41.439Z,8.94
2019-02-14T11:33:11.741Z,9.05
2019-02-14T11:35:43.105Z,9.42
2019-02-14T11:38:13.369Z,9.48
2019-02-14T11:40:43.613Z,9.51
2019-02-14T11:43:13.854Z,9.65
2019-02-14T11:45:44.112Z,9.66
2019-02-14T11:48:14.375Z,9.63
2019-02-14T11:50:44.630Z,10.08
2019-02-14T11:53:14.909Z,10.01
2019-02-14T11:55:46.116Z,9.79
2019-02-14T11:58:16.374Z,9.58
2019-02-14T12:00:46.622Z,9.50
2019-02-14T12:03:16.883Z,9.49
2019-02-14T12:05:47.218Z,9.45
2019-02-14T12:08:17.492Z,9.32
2019-02-14T12:10:47.742Z,9.18
2019-02-14T12:13:19.074Z,8.95
2019-02-14T12:15:49.425Z,8.80
2019-02-14T12:18:24.110Z,8.71
2019-02-14T12:20:54.462Z,8.84
2019-02-14T12:23:24.710Z,8.94
2019-02-14T12:25:57.676Z,8.98
2019-02-14T12:28:27.955Z,9.21
2019-02-14T12:30:58.233Z,9.06
2019-02-14T12:33:28.624Z,9.19
2019-02-14T12:35:58.888Z,9.12
2019-02-14T12:38:29.141Z,8.89
2019-02-14T12:40:59.390Z,8.95
2019-02-14T12:43:29.633Z,8.80
2019-02-14T12:45:59.879Z,8.74
2019-02-14T12:48:30.137Z,8.69
2019-02-14T12:51:00.500Z,8.66
2019-02-14T12:53:31.733Z,8.68
2019-02-14T12:56:02.010Z,8.70
2019-02-14T12:58:32.242Z,8.77
2019-02-14T13:01:02.491Z,8.83
2019-02-14T13:03:32.762Z,8.86
2019-02-14T13:06:03.106Z,8.86
2019-02-14T13:08:33.355Z,8.91
2019-02-14T13:11:03.638Z,8.95
2019-02-14T13:13:33.918Z,8.78
2019-02-14T13:16:04.171Z,8.80
2019-02-14T13:18:34.443Z,8.83
2019-02-14T13:21:04.729Z,8.83
2019-02-14T13:23:34.979Z,8.79
2019-02-14T13:26:05.247Z,8.78
2019-02-14T13:28:35.544Z,8.68
2019-02-14T13:31:05.887Z,8.64
2019-02-14T13:33:36.159Z,8.57
2019-02-14T13:36:06.478Z,8.58
2019-02-14T13:38:36.748Z,8.60
2019-02-14T13:41:07.018Z,8.55
2019-02-14T13:43:37.276Z,8.48
2019-02-14T13:46:07.602Z,8.54
2019-02-14T13:48:37.893Z,8.51
2019-02-14T13:51:08.320Z,8.48
2019-02-14T13:53:38.585Z,8.53
2019-02-14T13:56:08.861Z,8.58
2019-02-14T13:58:39.221Z,8.54
2019-02-14T14:01:09.479Z,8.57
2019-02-14T14:03:39.750Z,8.40
2019-02-14T14:06:10.226Z,8.45
2019-02-14T14:08:40.481Z,8.45
2019-02-14T14:11:10.762Z,8.42
2019-02-14T14:13:41.032Z,8.39
2019-02-14T14:16:11.302Z,8.41
2019-02-14T14:18:42.354Z,8.37
2019-02-14T14:21:12.691Z,8.45
2019-02-14T14:23:42.951Z,8.37
2019-02-14T14:26:13.224Z,8.31
2019-02-14T14:28:43.472Z,8.29
2019-02-14T14:31:13.756Z,8.26
2019-02-14T14:33:44.047Z,8.27
2019-02-14T14:36:14.378Z,8.26
2019-02-14T14:38:44.621Z,8.17
2019-02-14T14:41:14.979Z,8.09
2019-02-14T14:43:46.940Z,8.10
2019-02-14T14:46:21.638Z,8.09
2019-02-14T14:48:51.899Z,8.14
2019-02-14T14:51:23.991Z,8.11
2019-02-14T14:53:54.344Z,8.04
2019-02-14T14:56:24.958Z,8.00
2019-02-14T14:58:55.442Z,7.97
2019-02-14T15:01:25.726Z,7.95
2019-02-14T15:04:02.843Z,7.93
2019-02-14T15:06:42.589Z,7.92
2019-02-14T15:09:14.047Z,7.91
2019-02-14T15:11:44.649Z,7.84
2019-02-14T15:14:15.243Z,7.78
2019-02-14T15:16:45.899Z,7.75
2019-02-14T15:19:16.669Z,7.66
2019-02-14T15:21:47.048Z,7.65
2019-02-14T15:24:17.287Z,7.63
2019-02-14T15:26:48.238Z,7.61
2019-02-14T15:29:18.596Z,7.56
2019-02-14T15:31:48.921Z,7.50
2019-02-14T15:34:19.198Z,7.47
2019-02-14T15:36:51.694Z,7.44
2019-02-14T15:39:22.367Z,7.37
2019-02-14T15:41:53.159Z,7.35
2019-02-14T15:44:23.445Z,7.32
2019-02-14T15:46:53.773Z,7.31
2019-02-14T15:49:25.423Z,7.28
2019-02-14T15:51:57.585Z,7.28
2019-02-14T15:54:27.952Z,7.27
2019-02-14T15:56:58.325Z,7.26
2019-02-14T15:59:28.940Z,7.20
2019-02-14T16:01:59.373Z,7.21
2019-02-14T16:04:31.369Z,7.21
2019-02-14T16:07:01.691Z,7.19
2019-02-14T16:09:32.616Z,7.18
2019-02-14T16:12:02.985Z,7.16
2019-02-14T16:14:33.292Z,7.17
2019-02-14T16:17:04.612Z,7.16
2019-02-14T16:19:36.522Z,7.12
2019-02-14T16:22:06.993Z,7.09
2019-02-14T16:24:39.193Z,7.07
2019-02-14T16:27:09.627Z,7.01
2019-02-14T16:33:25.859Z,6.93
2019-02-14T16:35:56.458Z,6.92
2019-02-14T16:38:26.932Z,6.90
2019-02-14T16:40:57.220Z,6.90
2019-02-14T16:43:27.700Z,6.87
2019-02-14T16:45:58.541Z,6.82
2019-02-14T16:48:29.087Z,6.82
2019-02-14T17:02:40.771Z,6.76
2019-02-14T17:05:27.787Z,6.72
2019-02-14T17:11:29.017Z,6.68
2019-02-14T17:17:40.925Z,6.64
2019-02-14T17:26:56.309Z,6.70
2019-02-14T17:29:26.795Z,6.67
2019-02-14T17:31:58.703Z,6.64
2019-02-14T17:34:29.111Z,6.64
2019-02-14T17:37:01.615Z,6.63
2019-02-14T17:39:32.575Z,6.65
2019-02-14T17:42:05.427Z,6.63
2019-02-14T17:44:38.767Z,6.61
2019-02-14T17:47:10.456Z,6.61
2019-02-14T17:49:42.154Z,6.59
2019-02-14T17:52:12.766Z,6.59
2019-02-14T17:54:43.694Z,6.61
2019-02-14T17:57:13.902Z,6.59
2019-02-14T17:59:44.533Z,6.59
2019-02-14T18:02:16.188Z,6.60
2019-02-14T18:04:46.459Z,6.58
2019-02-14T18:07:16.740Z,6.61
2019-02-14T18:09:47.164Z,6.61
2019-02-14T18:12:18.452Z,6.59
2019-02-14T18:14:48.792Z,6.59
2019-02-14T18:17:19.830Z,6.59
2019-02-14T18:19:51.861Z,6.58
2019-02-14T18:22:22.306Z,6.60
2019-02-14T18:24:53.095Z,6.58
2019-02-14T18:27:23.492Z,6.58
2019-02-14T18:29:53.828Z,6.53
2019-02-14T18:32:27.843Z,6.53
2019-02-14T18:34:59.167Z,6.49
2019-02-14T18:37:29.407Z,6.49
2019-02-14T18:39:59.865Z,6.48
2019-02-14T18:42:30.454Z,6.47
2019-02-14T18:45:00.848Z,6.45
2019-02-14T18:47:39.300Z,6.44
2019-02-14T18:50:03.271Z,6.42
2019-02-14T18:52:33.637Z,6.41
2019-02-14T18:55:04.262Z,6.39
2019-02-14T18:57:34.542Z,6.41
2019-02-14T19:00:17.046Z,6.43
2019-02-14T19:02:47.783Z,6.41
2019-02-14T19:05:18.191Z,6.39
2019-02-14T19:07:48.806Z,6.39
2019-02-14T19:10:19.491Z,6.35
2019-02-14T19:12:49.998Z,6.38
2019-02-14T19:15:20.577Z,6.39
2019-02-14T19:17:52.559Z,6.37
2019-02-14T19:20:24.619Z,6.40
2019-02-14T19:22:56.045Z,6.34
2019-02-14T19:25:29.544Z,6.32
2019-02-14T19:27:59.597Z,6.32
2019-02-14T19:30:30.702Z,6.30
2019-02-14T19:33:02.597Z,6.30
2019-02-14T19:35:32.870Z,6.30
2019-02-14T19:38:03.496Z,6.27
2019-02-14T19:40:35.512Z,6.26
2019-02-14T19:43:05.804Z,6.25
2019-02-14T19:45:36.940Z,6.21
2019-02-14T19:48:07.564Z,6.21
2019-02-14T19:50:39.682Z,6.22
2019-02-14T19:53:13.281Z,6.22
2019-02-14T19:59:21.591Z,6.19
2019-02-14T20:01:52.025Z,6.16
2019-02-14T20:04:22.387Z,6.15
2019-02-14T20:06:52.749Z,6.17
2019-02-14T20:09:23.103Z,6.17
2019-02-14T20:11:53.377Z,6.18
2019-02-14T20:14:23.842Z,6.18
2019-02-14T20:16:55.795Z,6.17
2019-02-14T20:19:26.546Z,6.17
2019-02-14T20:21:59.529Z,6.16
2019-02-14T20:24:32.611Z,6.14
2019-02-14T20:27:04.671Z,6.13
2019-02-14T20:29:35.203Z,6.17
2019-02-14T20:32:05.969Z,6.17
2019-02-14T20:34:37.415Z,6.14
2019-02-14T20:37:09.681Z,6.09
2019-02-14T20:39:40.571Z,6.06
2019-02-14T20:42:11.672Z,6.06
2019-02-14T20:44:44.031Z,6.04
2019-02-14T20:47:14.372Z,6.04
2019-02-14T20:49:44.636Z,6.04
2019-02-14T20:52:15.095Z,6.05
2019-02-14T20:54:46.135Z,6.04
2019-02-14T20:57:16.407Z,6.04
2019-02-14T20:59:47.485Z,6.04
2019-02-14T21:02:18.251Z,6.05
2019-02-14T21:04:48.633Z,6.07
2019-02-14T21:07:21.003Z,6.10
2019-02-14T21:09:51.459Z,6.11
2019-02-14T21:12:21.822Z,6.11
2019-02-14T21:14:52.096Z,6.16
2019-02-14T21:17:22.471Z,6.17
2019-02-14T21:19:55.644Z,6.14
2019-02-14T21:22:26.000Z,6.12
2019-02-14T21:24:57.905Z,6.13
2019-02-14T21:27:28.408Z,6.13
2019-02-14T21:30:01.205Z,6.13
2019-02-14T21:32:31.967Z,6.11
2019-02-14T21:35:02.710Z,6.05
2019-02-14T21:37:33.206Z,6.01
2019-02-14T21:40:11.303Z,5.97
2019-02-14T21:42:41.579Z,5.96
2019-02-14T21:45:14.319Z,5.94
2019-02-14T21:47:45.127Z,5.93
2019-02-14T21:50:16.102Z,5.90
2019-02-14T21:52:47.189Z,5.88
2019-02-14T21:55:17.619Z,5.86
2019-02-14T21:57:50.252Z,5.85
2019-02-14T22:00:27.047Z,5.81
2019-02-14T22:02:57.586Z,5.79
2019-02-14T22:05:28.074Z,5.77
2019-02-14T22:07:58.509Z,5.76
2019-02-14T22:10:28.837Z,5.71
2019-02-14T22:12:59.210Z,5.74
2019-02-14T22:15:30.371Z,5.72
2019-02-14T22:18:01.058Z,5.71
2019-02-14T22:20:31.329Z,5.66
2019-02-14T22:23:01.672Z,5.66
2019-02-14T22:25:31.938Z,5.67
2019-02-14T22:28:02.346Z,5.68
2019-02-14T22:30:32.655Z,5.71
2019-02-14T22:33:03.182Z,5.70
2019-02-14T22:35:33.689Z,5.69
2019-02-14T22:38:04.396Z,5.68
2019-02-14T22:40:34.791Z,5.68
2019-02-14T22:43:05.130Z,5.67
2019-02-14T22:45:35.396Z,5.65
2019-02-14T22:48:05.723Z,5.61
2019-02-14T22:50:36.172Z,5.57
2019-02-14T22:53:06.494Z,5.55
2019-02-14T22:55:36.763Z,5.52
2019-02-14T22:58:07.302Z,5.51
2019-02-14T23:00:40.512Z,5.46
2019-02-14T23:03:11.893Z,5.42
2019-02-14T23:05:42.210Z,5.41
2019-02-14T23:08:12.565Z,5.37
2019-02-14T23:10:43.138Z,5.25
2019-02-14T23:13:13.529Z,5.12
2019-02-14T23:15:43.836Z,4.99
2019-02-14T23:18:14.144Z,4.87
2019-02-14T23:20:45.492Z,4.78
2019-02-14T23:23:15.884Z,4.72
2019-02-14T23:25:46.986Z,4.64
2019-02-14T23:28:17.301Z,4.57
2019-02-14T23:30:47.581Z,4.47
2019-02-14T23:33:17.880Z,4.37
2019-02-14T23:35:48.154Z,4.26
2019-02-14T23:38:18.406Z,4.19
2019-02-14T23:40:48.741Z,4.12
2019-02-14T23:43:19.031Z,4.07
2019-02-14T23:45:49.439Z,4.03
2019-02-14T23:48:19.898Z,4.00
2019-02-14T23:50:50.152Z,3.98
2019-02-14T23:53:20.531Z,3.93
2019-02-14T23:55:50.808Z,3.87
2019-02-14T23:58:21.583Z,3.83
